Time,TemperatureF,DewpointF,PressureIn,WindDirection,WindDirectionDegrees,WindSpeedMPH,WindSpeedGustMPH,Humidity,HourlyPrecipIn,Conditions,Clouds,dailyrainin,SoftwareType,DateUTC
2013-04-26 00:09:00,28.7,25.3,30.06,NW,306,1.0,1.0,87,0.00,,,0.00,Wunderground v.1.15,2013-04-26 08:09:00,
2013-04-26 00:14:00,28.5,25.4,30.05,NW,306,2.0,2.0,88,0.00,,,0.00,Wunderground v.1.15,2013-04-26 08:14:00,
2013-04-26 00:24:00,29.8,24.7,30.05,NNW,342,2.0,2.0,81,0.00,,,0.00,Wunderground v.1.15,2013-04-26 08:24:00,
2013-04-26 00:35:00,30.1,24.1,30.05,ESE,118,3.0,3.0,78,0.00,,,0.00,Wunderground v.1.15,2013-04-26 08:35:00,
2013-04-26 00:45:00,31.3,23.6,30.04,ESE,108,1.0,4.0,73,0.00,,,0.00,Wunderground v.1.15,2013-04-26 08:45:00,
2013-04-26 00:54:00,31.5,23.5,30.04,NNW,341,3.0,6.0,72,0.00,,,0.00,Wunderground v.1.15,2013-04-26 08:54:00,
2013-04-26 00:59:00,31.9,22.5,30.03,NNW,342,6.0,7.0,68,0.00,,,0.00,Wunderground v.1.15,2013-04-26 08:59:00,
2013-04-26 01:09:00,31.8,23.5,30.03,NNW,341,7.0,7.0,71,0.00,,,0.00,Wunderground v.1.15,2013-04-26 09:09:00,
2013-04-26 01:19:00,31.6,23.6,30.03,NNW,340,4.0,4.0,72,0.00,,,0.00,Wunderground v.1.15,2013-04-26 09:19:00,
2013-04-26 01:29:00,31.5,22.5,30.03,NNW,340,2.0,2.0,69,0.00,,,0.00,Wunderground v.1.15,2013-04-26 09:29:00,
2013-04-26 01:35:00,31.6,22.2,30.03,NNW,340,2.0,2.0,68,0.00,,,0.00,Wunderground v.1.15,2013-04-26 09:35:00,
2013-04-26 01:44:00,31.5,21.8,30.02,NNW,340,1.0,2.0,67,0.00,,,0.00,Wunderground v.1.15,2013-04-26 09:44:00,
2013-04-26 01:54:00,31.2,21.9,30.02,NNW,341,1.0,5.0,68,0.00,,,0.00,Wunderground v.1.15,2013-04-26 09:54:00,
2013-04-26 02:00:00,31.0,22.0,30.01,NNW,347,2.0,5.0,69,0.00,,,0.00,Wunderground v.1.15,2013-04-26 10:00:00,
2013-04-26 02:10:00,30.7,22.1,30.01,NNW,345,2.0,2.0,70,0.00,,,0.00,Wunderground v.1.15,2013-04-26 10:10:00,
2013-04-26 02:20:00,31.0,21.7,30.00,North,4,2.0,5.0,68,0.00,,,0.00,Wunderground v.1.15,2013-04-26 10:20:00,
2013-04-26 02:30:00,31.0,22.0,30.00,NNW,344,6.0,6.0,69,0.00,,,0.00,Wunderground v.1.15,2013-04-26 10:30:00,
2013-04-26 02:40:00,30.0,22.4,30.00,NNW,342,5.0,5.0,73,0.00,,,0.00,Wunderground v.1.15,2013-04-26 10:40:00,
2013-04-26 02:50:00,29.4,22.8,29.99,North,349,6.0,7.0,76,0.00,,,0.00,Wunderground v.1.15,2013-04-26 10:50:00,
2013-04-26 03:00:00,29.0,23.0,29.99,NNW,344,9.0,9.0,78,0.00,,,0.00,Wunderground v.1.15,2013-04-26 11:00:00,
2013-04-26 03:09:00,28.8,22.8,29.99,NNW,337,5.0,5.0,78,0.00,,,0.00,Wunderground v.1.15,2013-04-26 11:09:00,
2013-04-26 03:15:00,29.0,23.0,29.98,North,354,5.0,6.0,78,0.00,,,0.00,Wunderground v.1.15,2013-04-26 11:15:00,
2013-04-26 03:24:00,29.1,23.7,29.98,NNW,340,8.0,11.0,80,0.00,,,0.00,Wunderground v.1.15,2013-04-26 11:24:00,
2013-04-26 03:30:00,29.3,23.9,29.97,North,11,9.0,9.0,80,0.00,,,0.00,Wunderground v.1.15,2013-04-26 11:30:00,
2013-04-26 03:39:00,29.3,24.2,29.97,East,88,3.0,6.0,81,0.00,,,0.00,Wunderground v.1.15,2013-04-26 11:39:00,
2013-04-26 03:44:00,29.4,24.0,29.97,NE,40,3.0,6.0,80,0.00,,,0.00,Wunderground v.1.15,2013-04-26 11:44:00,
2013-04-26 03:50:00,29.5,24.1,29.97,WNW,292,5.0,10.0,80,0.00,,,0.00,Wunderground v.1.15,2013-04-26 11:50:00,
2013-04-26 04:00:00,29.1,24.3,29.96,NNW,331,10.0,10.0,82,0.00,,,0.00,Wunderground v.1.15,2013-04-26 12:00:00,
2013-04-26 04:10:00,29.4,24.6,29.96,NNW,340,11.0,11.0,82,0.00,,,0.00,Wunderground v.1.15,2013-04-26 12:10:00,
2013-04-26 04:20:00,29.0,24.8,29.94,North,349,10.0,10.0,84,0.00,,,0.00,Wunderground v.1.15,2013-04-26 12:20:00,
2013-04-26 04:30:00,29.1,24.9,29.94,NNW,334,10.0,14.0,84,0.00,,,0.00,Wunderground v.1.15,2013-04-26 12:30:00,
2013-04-26 04:40:00,28.5,25.1,29.94,North,1,13.0,13.0,87,0.00,,,0.00,Wunderground v.1.15,2013-04-26 12:40:00,
2013-04-26 04:49:00,28.7,25.3,29.93,NNW,344,11.0,11.0,87,0.00,,,0.00,Wunderground v.1.15,2013-04-26 12:49:00,
2013-04-26 04:59:00,29.4,25.4,29.92,NW,306,9.0,10.0,85,0.00,,,0.00,Wunderground v.1.15,2013-04-26 12:59:00,
2013-04-26 05:05:00,29.7,25.7,29.92,NNE,13,8.0,10.0,85,0.00,,,0.00,Wunderground v.1.15,2013-04-26 13:05:00,
2013-04-26 05:14:00,30.0,25.8,29.93,North,356,6.0,7.0,84,0.00,,,0.00,Wunderground v.1.15,2013-04-26 13:14:00,
2013-04-26 05:24:00,29.8,25.0,29.93,NE,36,2.0,5.0,82,0.00,,,0.00,Wunderground v.1.15,2013-04-26 13:24:00,
2013-04-26 05:30:00,29.7,25.2,29.92,NE,36,0.0,0.0,83,0.00,,,0.00,Wunderground v.1.15,2013-04-26 13:30:00,
2013-04-26 05:39:00,29.8,25.6,29.92,ENE,67,1.0,2.0,84,0.00,,,0.00,Wunderground v.1.15,2013-04-26 13:39:00,
2013-04-26 05:44:00,30.4,25.9,29.91,NE,42,3.0,8.0,83,0.00,,,0.00,Wunderground v.1.15,2013-04-26 13:44:00,
2013-04-26 05:54:00,30.7,25.9,29.91,NNE,33,6.0,6.0,82,0.00,,,0.00,Wunderground v.1.15,2013-04-26 13:54:00,
2013-04-26 06:00:00,30.4,25.6,29.91,NNE,33,3.0,3.0,82,0.00,,,0.00,Wunderground v.1.15,2013-04-26 14:00:00,
2013-04-26 06:10:00,29.5,25.3,29.91,NNE,33,0.0,2.0,84,0.00,,,0.00,Wunderground v.1.15,2013-04-26 14:10:00,
2013-04-26 06:20:00,29.4,25.4,29.90,NNE,33,0.0,0.0,85,0.00,,,0.00,Wunderground v.1.15,2013-04-26 14:20:00,
2013-04-26 06:30:00,29.0,24.8,29.89,NE,36,1.0,1.0,84,0.00,,,0.00,Wunderground v.1.15,2013-04-26 14:30:00,
2013-04-26 06:40:00,29.3,25.1,29.89,NE,39,1.0,2.0,84,0.00,,,0.00,Wunderground v.1.15,2013-04-26 14:40:00,
2013-04-26 06:49:00,29.0,24.8,29.89,NE,39,1.0,1.0,84,0.00,,,0.00,Wunderground v.1.15,2013-04-26 14:49:00,
2013-04-26 06:59:00,29.4,25.4,29.88,ENE,67,3.0,3.0,85,0.00,,,0.00,Wunderground v.1.15,2013-04-26 14:59:00,
2013-04-26 07:05:00,29.8,25.8,29.88,ENE,74,4.0,7.0,85,0.00,,,0.00,Wunderground v.1.15,2013-04-26 15:05:00,
2013-04-26 07:15:00,30.6,26.3,29.87,NE,46,5.0,5.0,84,0.00,,,0.00,Wunderground v.1.15,2013-04-26 15:15:00,
2013-04-26 07:24:00,30.3,26.0,29.87,NNE,32,5.0,6.0,84,0.00,,,0.00,Wunderground v.1.15,2013-04-26 15:24:00,
2013-04-26 07:34:00,29.8,25.6,29.87,NNE,32,1.0,3.0,84,0.00,,,0.00,Wunderground v.1.15,2013-04-26 15:34:00,
2013-04-26 07:44:00,29.4,25.4,29.87,WNW,286,2.0,2.0,85,0.00,,,0.00,Wunderground v.1.15,2013-04-26 15:44:00,
2013-04-26 07:54:00,29.4,25.7,29.87,West,280,1.0,2.0,86,0.00,,,0.00,Wunderground v.1.15,2013-04-26 15:54:00,
2013-04-26 08:00:00,30.0,26.0,29.86,West,280,1.0,1.0,85,0.00,,,0.00,Wunderground v.1.15,2013-04-26 16:00:00,
2013-04-26 08:10:00,30.6,26.1,29.86,West,280,0.0,2.0,83,0.00,,,0.00,Wunderground v.1.15,2013-04-26 16:10:00,
2013-04-26 08:20:00,31.2,27.5,29.86,ENE,68,1.0,3.0,86,0.00,,,0.00,Wunderground v.1.15,2013-04-26 16:20:00,
2013-04-26 08:30:00,32.1,28.1,29.86,ENE,76,4.0,4.0,85,0.00,,,0.00,Wunderground v.1.15,2013-04-26 16:30:00,
2013-04-26 08:40:00,33.4,28.8,29.86,NE,56,5.0,5.0,83,0.00,,,0.00,Wunderground v.1.15,2013-04-26 16:40:00,
2013-04-26 08:50:00,33.5,28.9,29.86,ENE,70,4.0,4.0,83,0.00,,,0.00,Wunderground v.1.15,2013-04-26 16:50:00,
2013-04-26 09:00:00,33.5,29.2,29.87,NE,40,2.0,2.0,84,0.00,,,0.00,Wunderground v.1.15,2013-04-26 17:00:00,
2013-04-26 09:10:00,33.1,28.5,29.87,ENE,78,1.0,1.0,83,0.00,,,0.00,Wunderground v.1.15,2013-04-26 17:10:00,
2013-04-26 09:20:00,35.2,30.3,29.87,East,95,1.0,1.0,82,0.00,,,0.00,Wunderground v.1.15,2013-04-26 17:20:00,
2013-04-26 09:29:00,35.8,29.3,29.86,NNE,29,3.0,6.0,77,0.00,,,0.00,Wunderground v.1.15,2013-04-26 17:29:00,
2013-04-26 09:35:00,35.3,28.8,29.86,ENE,74,5.0,6.0,77,0.00,,,0.00,Wunderground v.1.15,2013-04-26 17:35:00,
2013-04-26 09:45:00,35.6,28.1,29.87,ENE,66,7.0,11.0,74,0.00,,,0.00,Wunderground v.1.15,2013-04-26 17:45:00,
2013-04-26 09:55:00,35.9,27.7,29.87,ENE,70,8.0,10.0,72,0.00,,,0.00,Wunderground v.1.15,2013-04-26 17:55:00,
2013-04-26 10:04:00,35.8,27.7,29.87,NE,53,10.0,10.0,72,0.00,,,0.00,Wunderground v.1.15,2013-04-26 18:04:00,
2013-04-26 10:14:00,36.5,27.6,29.87,ENE,64,6.0,10.0,70,0.00,,,0.00,Wunderground v.1.15,2013-04-26 18:14:00,
2013-04-26 10:20:00,36.8,27.9,29.87,East,80,4.0,4.0,70,0.00,,,0.00,Wunderground v.1.15,2013-04-26 18:20:00,
2013-04-26 10:30:00,37.2,26.9,29.88,ESE,104,3.0,6.0,66,0.00,,,0.00,Wunderground v.1.15,2013-04-26 18:30:00,
2013-04-26 10:39:00,38.0,26.9,29.88,East,98,4.0,4.0,64,0.00,,,0.00,Wunderground v.1.15,2013-04-26 18:39:00,
2013-04-26 10:45:00,38.5,27.0,29.88,ESE,108,3.0,4.0,63,0.00,,,0.00,Wunderground v.1.15,2013-04-26 18:45:00,
2013-04-26 10:55:00,39.1,27.2,29.88,ESE,104,2.0,5.0,62,0.00,,,0.00,Wunderground v.1.15,2013-04-26 18:55:00,
2013-04-26 11:05:00,39.2,26.9,29.88,NE,40,2.0,2.0,61,0.00,,,0.00,Wunderground v.1.15,2013-04-26 19:05:00,
2013-04-26 11:14:00,38.6,26.3,29.89,NE,42,2.0,2.0,61,0.00,,,0.00,Wunderground v.1.15,2013-04-26 19:14:00,
2013-04-26 11:24:00,38.2,27.1,29.89,NNE,30,3.0,6.0,64,0.00,,,0.00,Wunderground v.1.15,2013-04-26 19:24:00,
2013-04-26 11:29:00,37.9,26.4,29.89,ENE,67,5.0,5.0,63,0.00,,,0.00,Wunderground v.1.15,2013-04-26 19:29:00,
2013-04-26 11:39:00,37.5,26.8,29.89,NNE,29,5.0,6.0,65,0.00,,,0.00,Wunderground v.1.15,2013-04-26 19:39:00,
2013-04-26 11:49:00,37.6,27.3,29.90,NE,42,6.0,7.0,66,0.00,,,0.00,Wunderground v.1.15,2013-04-26 19:49:00,
2013-04-26 11:59:00,37.8,24.7,29.91,NE,54,9.0,9.0,59,0.00,,,0.00,Wunderground v.1.15,2013-04-26 19:59:00,
2013-04-26 12:05:00,36.9,25.5,29.91,ENE,71,9.0,13.0,63,0.00,,,0.00,Wunderground v.1.15,2013-04-26 20:05:00,
2013-04-26 12:15:00,36.0,25.4,29.91,ENE,73,12.0,13.0,65,0.00,,,0.00,Wunderground v.1.15,2013-04-26 20:15:00,
2013-04-26 12:25:00,35.5,26.0,29.91,ENE,63,11.0,12.0,68,0.00,,,0.00,Wunderground v.1.15,2013-04-26 20:25:00,
2013-04-26 12:35:00,35.8,24.8,29.91,ENE,64,12.0,18.0,64,0.00,,,0.00,Wunderground v.1.15,2013-04-26 20:35:00,
2013-04-26 12:45:00,35.6,25.0,29.90,ENE,78,11.0,12.0,65,0.00,,,0.00,Wunderground v.1.15,2013-04-26 20:45:00,
2013-04-26 12:54:00,36.2,24.8,29.90,ENE,67,9.0,10.0,63,0.00,,,0.00,Wunderground v.1.15,2013-04-26 20:54:00,
2013-04-26 13:04:00,36.0,23.8,29.90,NE,54,10.0,16.0,61,0.00,,,0.00,Wunderground v.1.15,2013-04-26 21:04:00,
2013-04-26 13:14:00,36.3,23.7,29.90,ENE,78,12.0,17.0,60,0.00,,,0.00,Wunderground v.1.15,2013-04-26 21:14:00,
2013-04-26 13:24:00,35.8,22.5,29.90,ENE,59,16.0,18.0,58,0.00,,,0.00,Wunderground v.1.15,2013-04-26 21:24:00,
2013-04-26 13:30:00,35.6,22.7,29.90,ENE,68,15.0,15.0,59,0.00,,,0.00,Wunderground v.1.15,2013-04-26 21:30:00,
2013-04-26 13:39:00,35.8,22.5,29.90,ENE,78,13.0,16.0,58,0.00,,,0.00,Wunderground v.1.15,2013-04-26 21:39:00,
2013-04-26 13:45:00,35.9,22.1,29.90,East,81,13.0,16.0,57,0.00,,,0.00,Wunderground v.1.15,2013-04-26 21:45:00,
2013-04-26 13:55:00,35.9,22.5,29.90,ENE,70,13.0,20.0,58,0.00,,,0.00,Wunderground v.1.15,2013-04-26 21:55:00,
2013-04-26 14:05:00,35.9,21.7,29.89,ENE,74,11.0,13.0,56,0.00,,,0.00,Wunderground v.1.15,2013-04-26 22:05:00,
2013-04-26 14:15:00,36.0,22.2,29.90,NE,47,11.0,12.0,57,0.00,,,0.00,Wunderground v.1.15,2013-04-26 22:15:00,
2013-04-26 14:25:00,36.2,21.1,29.90,ENE,68,10.0,14.0,54,0.00,,,0.00,Wunderground v.1.15,2013-04-26 22:25:00,
2013-04-26 14:35:00,36.0,21.8,29.90,ENE,57,10.0,12.0,56,0.00,,,0.00,Wunderground v.1.15,2013-04-26 22:35:00,
2013-04-26 14:45:00,36.2,22.0,29.89,ENE,64,10.0,12.0,56,0.00,,,0.00,Wunderground v.1.15,2013-04-26 22:45:00,
2013-04-26 14:55:00,37.0,23.2,29.89,NE,47,6.0,8.0,57,0.00,,,0.00,Wunderground v.1.15,2013-04-26 22:55:00,
2013-04-26 15:04:00,37.3,22.6,29.88,NNE,33,6.0,9.0,55,0.00,,,0.00,Wunderground v.1.15,2013-04-26 23:04:00,
2013-04-26 15:14:00,36.5,22.3,29.88,NNE,29,10.0,12.0,56,0.00,,,0.00,Wunderground v.1.15,2013-04-26 23:14:00,
2013-04-26 15:20:00,36.6,21.9,29.88,NNE,26,11.0,11.0,55,0.00,,,0.00,Wunderground v.1.15,2013-04-26 23:20:00,
2013-04-26 15:30:00,37.2,21.2,29.87,NE,36,7.0,7.0,52,0.00,,,0.00,Wunderground v.1.15,2013-04-26 23:30:00,
2013-04-26 15:40:00,36.9,22.2,29.87,NNE,28,9.0,12.0,55,0.00,,,0.00,Wunderground v.1.15,2013-04-26 23:40:00,
2013-04-26 15:50:00,36.2,22.0,29.86,East,85,12.0,12.0,56,0.00,,,0.00,Wunderground v.1.15,2013-04-26 23:50:00,
2013-04-26 16:09:00,35.5,22.6,29.86,ENE,71,10.0,11.0,59,0.00,,,0.00,Wunderground v.1.15,2013-04-27 00:09:00,
2013-04-26 16:15:00,35.5,23.0,29.87,NNE,25,10.0,13.0,60,0.00,,,0.00,Wunderground v.1.15,2013-04-27 00:15:00,
2013-04-26 16:25:00,35.0,21.7,29.87,NE,39,11.0,13.0,58,0.00,,,0.00,Wunderground v.1.15,2013-04-27 00:25:00,
2013-04-26 16:35:00,33.4,22.5,29.87,NE,40,13.0,18.0,64,0.00,,,0.00,Wunderground v.1.15,2013-04-27 00:35:00,
2013-04-26 16:45:00,33.2,21.2,29.87,ENE,59,11.0,12.0,61,0.00,,,0.00,Wunderground v.1.15,2013-04-27 00:45:00,
2013-04-26 16:55:00,32.5,21.7,29.87,NNE,20,11.0,15.0,64,0.00,,,0.00,Wunderground v.1.15,2013-04-27 00:55:00,
2013-04-26 17:05:00,32.1,21.7,29.87,NE,36,10.0,11.0,65,0.00,,,0.00,Wunderground v.1.15,2013-04-27 01:05:00,
2013-04-26 17:15:00,31.8,21.4,29.87,NNE,29,8.0,10.0,65,0.00,,,0.00,Wunderground v.1.15,2013-04-27 01:15:00,
2013-04-26 17:25:00,31.5,20.3,29.87,NE,35,7.0,12.0,63,0.00,,,0.00,Wunderground v.1.15,2013-04-27 01:25:00,
2013-04-26 17:35:00,31.2,20.4,29.87,NE,54,7.0,7.0,64,0.00,,,0.00,Wunderground v.1.15,2013-04-27 01:35:00,
2013-04-26 17:44:00,32.1,21.3,29.87,ENE,61,6.0,8.0,64,0.00,,,0.00,Wunderground v.1.15,2013-04-27 01:44:00,
2013-04-26 17:50:00,31.6,21.5,29.87,ENE,73,7.0,10.0,66,0.00,,,0.00,Wunderground v.1.15,2013-04-27 01:50:00,
2013-04-26 17:59:00,30.6,20.2,29.87,NE,36,12.0,14.0,65,0.00,,,0.00,Wunderground v.1.15,2013-04-27 01:59:00,
2013-04-26 18:04:00,29.7,19.7,29.87,NE,46,15.0,16.0,66,0.00,,,0.00,Wunderground v.1.15,2013-04-27 02:04:00,
2013-04-26 18:14:00,29.0,19.4,29.86,NNE,28,16.0,24.0,67,0.00,,,0.00,Wunderground v.1.15,2013-04-27 02:14:00,
2013-04-26 18:24:00,28.7,18.8,29.86,NNE,30,19.0,25.0,66,0.00,,,0.00,Wunderground v.1.15,2013-04-27 02:24:00,
2013-04-26 18:30:00,28.5,18.9,29.86,NNE,29,20.0,22.0,67,0.00,,,0.00,Wunderground v.1.15,2013-04-27 02:30:00,
2013-04-26 18:40:00,29.1,18.8,29.86,ENE,74,14.0,14.0,65,0.00,,,0.00,Wunderground v.1.15,2013-04-27 02:40:00,
2013-04-26 18:50:00,27.9,18.0,29.87,NNE,26,19.0,19.0,66,0.00,,,0.00,Wunderground v.1.15,2013-04-27 02:50:00,
2013-04-26 19:00:00,28.2,19.3,29.87,ENE,70,15.0,15.0,69,0.00,,,0.00,Wunderground v.1.15,2013-04-27 03:00:00,
2013-04-26 19:09:00,28.2,20.0,29.87,NE,44,10.0,10.0,71,0.00,,,0.00,Wunderground v.1.15,2013-04-27 03:09:00,
2013-04-26 19:14:00,28.5,19.6,29.88,ENE,63,10.0,10.0,69,0.00,,,0.00,Wunderground v.1.15,2013-04-27 03:14:00,
2013-04-26 19:20:00,28.4,20.2,29.88,ENE,70,9.0,9.0,71,0.00,,,0.00,Wunderground v.1.15,2013-04-27 03:20:00,
2013-04-26 19:29:00,26.4,18.6,29.88,ENE,63,12.0,12.0,72,0.00,,,0.00,Wunderground v.1.15,2013-04-27 03:29:00,
2013-04-26 19:34:00,26.0,19.2,29.88,ENE,73,12.0,13.0,75,0.00,,,0.00,Wunderground v.1.15,2013-04-27 03:34:00,
2013-04-26 19:44:00,26.0,19.5,29.87,ENE,63,12.0,16.0,76,0.00,,,0.00,Wunderground v.1.15,2013-04-27 03:44:00,
2013-04-26 19:54:00,24.5,17.7,29.87,ENE,67,13.0,16.0,75,0.00,,,0.00,Wunderground v.1.15,2013-04-27 03:54:00,
2013-04-26 20:00:00,24.2,16.5,29.88,ENE,63,14.0,14.0,72,0.00,,,0.00,Wunderground v.1.15,2013-04-27 04:00:00,
2013-04-26 20:04:00,24.4,15.7,29.88,NE,46,15.0,15.0,69,0.00,,,0.00,Wunderground v.1.15,2013-04-27 04:04:00,
2013-04-26 20:10:00,25.1,16.0,29.88,ENE,61,16.0,16.0,68,0.00,,,0.00,Wunderground v.1.15,2013-04-27 04:10:00,
2013-04-26 20:14:00,24.8,15.7,29.92,NNE,32,15.0,21.0,68,0.00,,,0.00,Wunderground v.1.15,2013-04-27 04:14:00,
2013-04-26 20:19:00,24.7,16.0,29.92,NE,37,14.0,14.0,69,0.00,,,0.00,Wunderground v.1.15,2013-04-27 04:19:00,
2013-04-26 20:25:00,24.5,15.4,29.92,NE,36,13.0,14.0,68,0.00,,,0.00,Wunderground v.1.15,2013-04-27 04:25:00,
2013-04-26 20:34:00,25.1,15.3,29.91,ENE,70,13.0,17.0,66,0.00,,,0.00,Wunderground v.1.15,2013-04-27 04:34:00,
2013-04-26 20:39:00,24.8,15.0,29.91,NE,37,12.0,12.0,66,0.00,,,0.00,Wunderground v.1.15,2013-04-27 04:39:00,
2013-04-26 20:44:00,25.0,15.9,29.91,NE,36,10.0,12.0,68,0.00,,,0.00,Wunderground v.1.15,2013-04-27 04:44:00,
2013-04-26 20:50:00,24.8,16.1,29.91,NE,43,9.0,9.0,69,0.00,,,0.00,Wunderground v.1.15,2013-04-27 04:50:00,
2013-04-26 20:59:00,24.1,15.7,29.91,ENE,63,10.0,10.0,70,0.00,,,0.00,Wunderground v.1.15,2013-04-27 04:59:00,
2013-04-26 21:05:00,23.6,15.6,29.91,NNE,29,10.0,17.0,71,0.00,,,0.00,Wunderground v.1.15,2013-04-27 05:05:00,
2013-04-26 21:15:00,23.6,15.6,29.91,ENE,76,13.0,16.0,71,0.00,,,0.00,Wunderground v.1.15,2013-04-27 05:15:00,
2013-04-26 21:25:00,23.6,15.2,29.91,NE,43,15.0,17.0,70,0.00,,,0.00,Wunderground v.1.15,2013-04-27 05:25:00,
2013-04-26 21:35:00,23.8,15.4,29.92,ENE,78,14.0,18.0,70,0.00,,,0.00,Wunderground v.1.15,2013-04-27 05:35:00,
2013-04-26 21:44:00,22.9,15.5,29.93,ENE,71,12.0,21.0,73,0.00,,,0.00,Wunderground v.1.15,2013-04-27 05:44:00,
2013-04-26 21:54:00,22.4,14.7,29.93,NE,53,16.0,16.0,72,0.00,,,0.00,Wunderground v.1.15,2013-04-27 05:54:00,
2013-04-26 21:59:00,22.2,15.5,29.92,ENE,61,16.0,25.0,75,0.00,,,0.00,Wunderground v.1.15,2013-04-27 05:59:00,
2013-04-26 22:09:00,22.4,15.1,29.92,ENE,66,20.0,22.0,73,0.00,,,0.00,Wunderground v.1.15,2013-04-27 06:09:00,
2013-04-26 22:20:00,21.9,15.2,29.94,ENE,64,17.0,17.0,75,0.00,,,0.00,Wunderground v.1.15,2013-04-27 06:20:00,
2013-04-26 22:30:00,21.8,15.1,29.95,NE,40,16.0,16.0,75,0.00,,,0.00,Wunderground v.1.15,2013-04-27 06:30:00,
2013-04-26 22:35:00,21.4,15.0,29.95,ENE,68,14.0,16.0,76,0.00,,,0.00,Wunderground v.1.15,2013-04-27 06:35:00,
2013-04-26 22:45:00,21.6,15.8,29.96,ENE,57,14.0,16.0,78,0.00,,,0.00,Wunderground v.1.15,2013-04-27 06:45:00,
2013-04-26 22:55:00,21.3,15.5,29.96,ENE,63,13.0,14.0,78,0.00,,,0.00,Wunderground v.1.15,2013-04-27 06:55:00,
2013-04-26 23:01:00,21.3,15.2,29.96,ENE,59,12.0,12.0,77,0.00,,,0.00,Wunderground v.1.15,2013-04-27 07:01:00,
2013-04-26 23:10:00,21.3,15.8,29.96,ENE,68,13.0,13.0,79,0.00,,,0.00,Wunderground v.1.15,2013-04-27 07:10:00,
2013-04-26 23:20:00,21.4,15.9,29.97,ENE,70,11.0,11.0,79,0.00,,,0.00,Wunderground v.1.15,2013-04-27 07:20:00,
2013-04-26 23:30:00,21.9,15.8,29.97,ENE,71,15.0,20.0,77,0.00,,,0.00,Wunderground v.1.15,2013-04-27 07:30:00,
2013-04-26 23:40:00,21.8,16.0,29.97,ENE,59,13.0,13.0,78,0.00,,,0.00,Wunderground v.1.15,2013-04-27 07:40:00,
2013-04-26 23:50:00,21.6,16.4,29.98,ENE,63,11.0,14.0,80,0.00,,,0.00,Wunderground v.1.15,2013-04-27 07:50:00,
2013-04-26 23:55:00,21.8,16.6,29.98,ENE,60,13.0,14.0,80,0.00,,,0.00,Wunderground v.1.15,2013-04-27 07:55:00,